sensor_id;sensor_type;location;lat;lon;timestamp;P1;durP1;ratioP1;P2;durP2;ratioP2
67191;SDS011;54120;53.504;49.426;2023-11-21T00:01:40;7.47;;;4.47;;
67191;SDS011;54120;53.504;49.426;2023-11-21T00:04:06;7.35;;;4.68;;
67191;SDS011;54120;53.504;49.426;2023-11-21T00:06:33;7.18;;;4.88;;
67191;SDS011;54120;53.504;49.426;2023-11-21T00:08:59;9.85;;;4.20;;
67191;SDS011;54120;53.504;49.426;2023-11-21T00:11:26;6.05;;;4.40;;
67191;SDS011;54120;53.504;49.426;2023-11-21T00:13:52;8.13;;;4.25;;
67191;SDS011;54120;53.504;49.426;2023-11-21T00:16:18;5.32;;;4.28;;
67191;SDS011;54120;53.504;49.426;2023-11-21T00:18:44;6.28;;;5.03;;
67191;SDS011;54120;53.504;49.426;2023-11-21T00:21:12;7.03;;;4.75;;
67191;SDS011;54120;53.504;49.426;2023-11-21T00:23:38;5.70;;;5.03;;
67191;SDS011;54120;53.504;49.426;2023-11-21T00:26:04;7.40;;;4.82;;
67191;SDS011;54120;53.504;49.426;2023-11-21T00:28:30;5.75;;;5.22;;
67191;SDS011;54120;53.504;49.426;2023-11-21T00:30:56;9.07;;;5.47;;
67191;SDS011;54120;53.504;49.426;2023-11-21T00:33:22;6.72;;;5.68;;
67191;SDS011;54120;53.504;49.426;2023-11-21T00:35:48;5.93;;;4.90;;
67191;SDS011;54120;53.504;49.426;2023-11-21T00:38:14;8.27;;;5.57;;
67191;SDS011;54120;53.504;49.426;2023-11-21T00:40:40;6.03;;;5.10;;
67191;SDS011;54120;53.504;49.426;2023-11-21T00:43:06;5.40;;;4.90;;
67191;SDS011;54120;53.504;49.426;2023-11-21T00:45:32;7.07;;;5.40;;
67191;SDS011;54120;53.504;49.426;2023-11-21T00:47:59;8.73;;;5.72;;
67191;SDS011;54120;53.504;49.426;2023-11-21T00:50:25;8.10;;;5.05;;
67191;SDS011;54120;53.504;49.426;2023-11-21T00:52:51;10.38;;;5.18;;
67191;SDS011;54120;53.504;49.426;2023-11-21T00:55:17;7.35;;;5.45;;
67191;SDS011;54120;53.504;49.426;2023-11-21T00:57:43;7.20;;;5.50;;
67191;SDS011;54120;53.504;49.426;2023-11-21T01:00:09;7.30;;;5.10;;
67191;SDS011;54120;53.504;49.426;2023-11-21T01:02:39;8.45;;;5.85;;
67191;SDS011;54120;53.504;49.426;2023-11-21T01:05:05;7.57;;;5.45;;
67191;SDS011;54120;53.504;49.426;2023-11-21T01:07:33;9.55;;;5.70;;
67191;SDS011;54120;53.504;49.426;2023-11-21T01:09:59;7.07;;;5.45;;
67191;SDS011;54120;53.504;49.426;2023-11-21T01:12:25;8.70;;;5.63;;
67191;SDS011;54120;53.504;49.426;2023-11-21T01:14:51;7.82;;;5.30;;
67191;SDS011;54120;53.504;49.426;2023-11-21T01:17:17;6.00;;;5.40;;
67191;SDS011;54120;53.504;49.426;2023-11-21T01:19:43;9.75;;;6.03;;
67191;SDS011;54120;53.504;49.426;2023-11-21T01:22:09;6.00;;;5.40;;
67191;SDS011;54120;53.504;49.426;2023-11-21T01:24:37;4.57;;;4.18;;
67191;SDS011;54120;53.504;49.426;2023-11-21T01:27:03;8.45;;;5.47;;
67191;SDS011;54120;53.504;49.426;2023-11-21T01:29:30;6.95;;;5.28;;
67191;SDS011;54120;53.504;49.426;2023-11-21T01:31:56;7.20;;;5.55;;
67191;SDS011;54120;53.504;49.426;2023-11-21T01:34:22;11.60;;;5.95;;
67191;SDS011;54120;53.504;49.426;2023-11-21T01:36:49;8.13;;;5.50;;
67191;SDS011;54120;53.504;49.426;2023-11-21T01:39:15;6.97;;;5.65;;
67191;SDS011;54120;53.504;49.426;2023-11-21T01:41:42;5.68;;;4.78;;
67191;SDS011;54120;53.504;49.426;2023-11-21T01:44:09;8.63;;;5.70;;
67191;SDS011;54120;53.504;49.426;2023-11-21T01:46:35;6.80;;;5.47;;
67191;SDS011;54120;53.504;49.426;2023-11-21T01:49:04;9.05;;;6.00;;
67191;SDS011;54120;53.504;49.426;2023-11-21T01:51:31;5.90;;;5.35;;
67191;SDS011;54120;53.504;49.426;2023-11-21T01:53:57;7.45;;;6.03;;
67191;SDS011;54120;53.504;49.426;2023-11-21T01:56:25;6.97;;;5.57;;
67191;SDS011;54120;53.504;49.426;2023-11-21T01:58:51;7.18;;;5.35;;
67191;SDS011;54120;53.504;49.426;2023-11-21T02:01:18;7.22;;;5.80;;
67191;SDS011;54120;53.504;49.426;2023-11-21T02:03:44;6.13;;;5.53;;
67191;SDS011;54120;53.504;49.426;2023-11-21T02:06:11;8.13;;;5.28;;
67191;SDS011;54120;53.504;49.426;2023-11-21T02:08:38;7.18;;;5.63;;
67191;SDS011;54120;53.504;49.426;2023-11-21T02:11:05;6.38;;;5.68;;
67191;SDS011;54120;53.504;49.426;2023-11-21T02:13:32;8.70;;;6.22;;
67191;SDS011;54120;53.504;49.426;2023-11-21T02:15:59;8.10;;;5.70;;
67191;SDS011;54120;53.504;49.426;2023-11-21T02:18:25;7.10;;;5.95;;
67191;SDS011;54120;53.504;49.426;2023-11-21T02:20:55;7.82;;;5.25;;
67191;SDS011;54120;53.504;49.426;2023-11-21T02:23:21;6.38;;;5.43;;
67191;SDS011;54120;53.504;49.426;2023-11-21T02:25:49;7.53;;;6.15;;
67191;SDS011;54120;53.504;49.426;2023-11-21T02:28:15;7.65;;;6.20;;
67191;SDS011;54120;53.504;49.426;2023-11-21T02:30:51;6.38;;;5.78;;
67191;SDS011;54120;53.504;49.426;2023-11-21T02:33:22;6.15;;;5.55;;
67191;SDS011;54120;53.504;49.426;2023-11-21T02:35:48;7.00;;;6.05;;
67191;SDS011;54120;53.504;49.426;2023-11-21T02:38:14;8.13;;;6.25;;
67191;SDS011;54120;53.504;49.426;2023-11-21T02:40:42;7.32;;;6.63;;
67191;SDS011;54120;53.504;49.426;2023-11-21T02:43:09;7.03;;;6.03;;
67191;SDS011;54120;53.504;49.426;2023-11-21T02:45:35;6.22;;;5.63;;
67191;SDS011;54120;53.504;49.426;2023-11-21T02:48:02;8.38;;;6.55;;
67191;SDS011;54120;53.504;49.426;2023-11-21T02:50:28;8.35;;;5.93;;
67191;SDS011;54120;53.504;49.426;2023-11-21T02:52:55;9.32;;;6.10;;
67191;SDS011;54120;53.504;49.426;2023-11-21T02:55:26;9.88;;;6.13;;
67191;SDS011;54120;53.504;49.426;2023-11-21T02:57:53;7.47;;;6.15;;
67191;SDS011;54120;53.504;49.426;2023-11-21T03:00:22;8.65;;;6.45;;
67191;SDS011;54120;53.504;49.426;2023-11-21T03:02:49;7.32;;;6.25;;
67191;SDS011;54120;53.504;49.426;2023-11-21T03:05:16;6.60;;;6.00;;
67191;SDS011;54120;53.504;49.426;2023-11-21T03:07:42;6.47;;;5.88;;
67191;SDS011;54120;53.504;49.426;2023-11-21T03:10:08;7.50;;;6.13;;
67191;SDS011;54120;53.504;49.426;2023-11-21T03:12:40;7.18;;;6.13;;
67191;SDS011;54120;53.504;49.426;2023-11-21T03:15:07;8.57;;;6.80;;
67191;SDS011;54120;53.504;49.426;2023-11-21T03:17:34;9.63;;;5.75;;
67191;SDS011;54120;53.504;49.426;2023-11-21T03:20:00;8.07;;;7.13;;
67191;SDS011;54120;53.504;49.426;2023-11-21T03:22:26;8.70;;;6.40;;
67191;SDS011;54120;53.504;49.426;2023-11-21T03:24:52;8.05;;;6.50;;
67191;SDS011;54120;53.504;49.426;2023-11-21T03:27:18;8.57;;;6.97;;
67191;SDS011;54120;53.504;49.426;2023-11-21T03:29:45;9.18;;;6.18;;
67191;SDS011;54120;53.504;49.426;2023-11-21T03:32:12;7.78;;;6.75;;
67191;SDS011;54120;53.504;49.426;2023-11-21T03:34:52;10.52;;;6.57;;
67191;SDS011;54120;53.504;49.426;2023-11-21T03:37:23;9.23;;;7.23;;
67191;SDS011;54120;53.504;49.426;2023-11-21T03:39:50;7.97;;;6.93;;
67191;SDS011;54120;53.504;49.426;2023-11-21T03:42:17;13.80;;;7.03;;
67191;SDS011;54120;53.504;49.426;2023-11-21T03:44:43;15.40;;;8.75;;
67191;SDS011;54120;53.504;49.426;2023-11-21T03:47:10;10.85;;;6.88;;
67191;SDS011;54120;53.504;49.426;2023-11-21T03:49:37;8.15;;;6.97;;
67191;SDS011;54120;53.504;49.426;2023-11-21T03:52:03;8.90;;;6.50;;
67191;SDS011;54120;53.504;49.426;2023-11-21T03:54:29;8.98;;;7.07;;
67191;SDS011;54120;53.504;49.426;2023-11-21T03:56:55;8.77;;;7.00;;
67191;SDS011;54120;53.504;49.426;2023-11-21T03:59:21;10.00;;;7.75;;
67191;SDS011;54120;53.504;49.426;2023-11-21T04:01:50;12.05;;;7.68;;
67191;SDS011;54120;53.504;49.426;2023-11-21T04:04:16;10.95;;;7.95;;
67191;SDS011;54120;53.504;49.426;2023-11-21T04:06:42;8.07;;;7.03;;
67191;SDS011;54120;53.504;49.426;2023-11-21T04:09:08;9.48;;;8.20;;
67191;SDS011;54120;53.504;49.426;2023-11-21T04:11:35;10.50;;;8.02;;
67191;SDS011;54120;53.504;49.426;2023-11-21T04:14:01;11.80;;;7.72;;
67191;SDS011;54120;53.504;49.426;2023-11-21T04:16:28;11.02;;;7.57;;
67191;SDS011;54120;53.504;49.426;2023-11-21T04:18:54;10.25;;;8.00;;
67191;SDS011;54120;53.504;49.426;2023-11-21T04:21:21;11.52;;;8.30;;
67191;SDS011;54120;53.504;49.426;2023-11-21T04:23:47;10.88;;;8.10;;
67191;SDS011;54120;53.504;49.426;2023-11-21T04:26:14;8.80;;;7.65;;
67191;SDS011;54120;53.504;49.426;2023-11-21T04:28:40;8.68;;;7.78;;
67191;SDS011;54120;53.504;49.426;2023-11-21T04:31:06;9.15;;;7.38;;
67191;SDS011;54120;53.504;49.426;2023-11-21T04:33:32;12.45;;;7.97;;
67191;SDS011;54120;53.504;49.426;2023-11-21T04:35:58;10.77;;;8.30;;
67191;SDS011;54120;53.504;49.426;2023-11-21T04:38:25;9.35;;;7.50;;
67191;SDS011;54120;53.504;49.426;2023-11-21T04:40:51;11.55;;;7.60;;
67191;SDS011;54120;53.504;49.426;2023-11-21T04:43:17;12.15;;;8.00;;
67191;SDS011;54120;53.504;49.426;2023-11-21T04:45:43;9.98;;;8.30;;
67191;SDS011;54120;53.504;49.426;2023-11-21T04:48:10;11.15;;;8.43;;
67191;SDS011;54120;53.504;49.426;2023-11-21T04:50:36;11.75;;;9.07;;
67191;SDS011;54120;53.504;49.426;2023-11-21T04:53:02;10.38;;;8.50;;
67191;SDS011;54120;53.504;49.426;2023-11-21T04:55:28;10.68;;;8.63;;
67191;SDS011;54120;53.504;49.426;2023-11-21T04:57:54;11.82;;;8.40;;
67191;SDS011;54120;53.504;49.426;2023-11-21T05:00:21;10.80;;;8.75;;
67191;SDS011;54120;53.504;49.426;2023-11-21T05:02:47;12.30;;;9.05;;
67191;SDS011;54120;53.504;49.426;2023-11-21T05:05:13;14.18;;;8.50;;
67191;SDS011;54120;53.504;49.426;2023-11-21T05:07:40;11.98;;;8.30;;
67191;SDS011;54120;53.504;49.426;2023-11-21T05:10:07;11.73;;;8.75;;
67191;SDS011;54120;53.504;49.426;2023-11-21T05:12:36;11.75;;;8.48;;
67191;SDS011;54120;53.504;49.426;2023-11-21T05:15:05;9.55;;;8.57;;
67191;SDS011;54120;53.504;49.426;2023-11-21T05:17:36;9.52;;;8.63;;
67191;SDS011;54120;53.504;49.426;2023-11-21T05:20:08;11.25;;;9.02;;
67191;SDS011;54120;53.504;49.426;2023-11-21T05:22:36;12.38;;;9.50;;
67191;SDS011;54120;53.504;49.426;2023-11-21T05:25:03;10.07;;;8.45;;
67191;SDS011;54120;53.504;49.426;2023-11-21T05:27:29;11.80;;;9.00;;
67191;SDS011;54120;53.504;49.426;2023-11-21T05:29:56;11.82;;;8.82;;
67191;SDS011;54120;53.504;49.426;2023-11-21T05:32:25;12.20;;;9.35;;
67191;SDS011;54120;53.504;49.426;2023-11-21T05:34:52;10.57;;;9.27;;
67191;SDS011;54120;53.504;49.426;2023-11-21T05:37:18;12.13;;;9.40;;
67191;SDS011;54120;53.504;49.426;2023-11-21T05:39:44;11.85;;;9.52;;
67191;SDS011;54120;53.504;49.426;2023-11-21T05:42:11;12.50;;;8.88;;
67191;SDS011;54120;53.504;49.426;2023-11-21T05:44:37;11.93;;;9.82;;
67191;SDS011;54120;53.504;49.426;2023-11-21T05:47:07;12.38;;;8.90;;
67191;SDS011;54120;53.504;49.426;2023-11-21T05:49:34;10.20;;;9.13;;
67191;SDS011;54120;53.504;49.426;2023-11-21T05:52:00;12.50;;;9.27;;
67191;SDS011;54120;53.504;49.426;2023-11-21T05:54:27;13.13;;;9.93;;
67191;SDS011;54120;53.504;49.426;2023-11-21T05:56:53;11.23;;;9.88;;
67191;SDS011;54120;53.504;49.426;2023-11-21T05:59:19;11.95;;;9.10;;
67191;SDS011;54120;53.504;49.426;2023-11-21T06:01:45;14.32;;;10.02;;
67191;SDS011;54120;53.504;49.426;2023-11-21T06:04:12;13.68;;;10.60;;
67191;SDS011;54120;53.504;49.426;2023-11-21T06:06:39;13.02;;;9.73;;
67191;SDS011;54120;53.504;49.426;2023-11-21T06:09:05;13.77;;;10.35;;
67191;SDS011;54120;53.504;49.426;2023-11-21T06:11:34;13.18;;;10.02;;
67191;SDS011;54120;53.504;49.426;2023-11-21T06:14:01;15.85;;;10.98;;
67191;SDS011;54120;53.504;49.426;2023-11-21T06:16:27;24.38;;;17.15;;
67191;SDS011;54120;53.504;49.426;2023-11-21T06:18:54;13.32;;;10.88;;
67191;SDS011;54120;53.504;49.426;2023-11-21T06:21:20;14.82;;;11.10;;
67191;SDS011;54120;53.504;49.426;2023-11-21T06:23:47;14.00;;;11.88;;
67191;SDS011;54120;53.504;49.426;2023-11-21T06:26:13;19.58;;;13.95;;
67191;SDS011;54120;53.504;49.426;2023-11-21T06:28:39;19.13;;;14.05;;
67191;SDS011;54120;53.504;49.426;2023-11-21T06:31:06;19.38;;;14.48;;
67191;SDS011;54120;53.504;49.426;2023-11-21T06:33:32;18.83;;;14.07;;
67191;SDS011;54120;53.504;49.426;2023-11-21T06:35:58;22.90;;;15.05;;
67191;SDS011;54120;53.504;49.426;2023-11-21T06:38:25;18.63;;;15.02;;
67191;SDS011;54120;53.504;49.426;2023-11-21T06:40:58;20.73;;;15.07;;
67191;SDS011;54120;53.504;49.426;2023-11-21T06:43:28;17.10;;;13.65;;
67191;SDS011;54120;53.504;49.426;2023-11-21T06:45:54;19.23;;;15.30;;
67191;SDS011;54120;53.504;49.426;2023-11-21T06:48:20;17.77;;;13.73;;
67191;SDS011;54120;53.504;49.426;2023-11-21T06:50:46;19.83;;;14.85;;
67191;SDS011;54120;53.504;49.426;2023-11-21T06:53:12;20.38;;;15.43;;
67191;SDS011;54120;53.504;49.426;2023-11-21T06:55:38;20.10;;;15.02;;
67191;SDS011;54120;53.504;49.426;2023-11-21T06:58:05;18.85;;;13.93;;
67191;SDS011;54120;53.504;49.426;2023-11-21T07:00:31;19.77;;;15.57;;
67191;SDS011;54120;53.504;49.426;2023-11-21T07:02:57;17.35;;;13.63;;
67191;SDS011;54120;53.504;49.426;2023-11-21T07:05:23;21.73;;;14.23;;
67191;SDS011;54120;53.504;49.426;2023-11-21T07:07:49;17.88;;;12.60;;
67191;SDS011;54120;53.504;49.426;2023-11-21T07:10:16;17.85;;;13.82;;
67191;SDS011;54120;53.504;49.426;2023-11-21T07:12:42;19.77;;;13.63;;
67191;SDS011;54120;53.504;49.426;2023-11-21T07:15:08;19.33;;;12.70;;
67191;SDS011;54120;53.504;49.426;2023-11-21T07:17:35;16.85;;;13.45;;
67191;SDS011;54120;53.504;49.426;2023-11-21T07:20:01;15.07;;;11.85;;
67191;SDS011;54120;53.504;49.426;2023-11-21T07:22:28;16.63;;;12.95;;
67191;SDS011;54120;53.504;49.426;2023-11-21T07:24:55;16.10;;;13.57;;
67191;SDS011;54120;53.504;49.426;2023-11-21T07:27:24;19.58;;;14.82;;
67191;SDS011;54120;53.504;49.426;2023-11-21T07:29:50;22.45;;;16.67;;
67191;SDS011;54120;53.504;49.426;2023-11-21T07:32:19;21.40;;;16.33;;
67191;SDS011;54120;53.504;49.426;2023-11-21T07:34:45;19.88;;;15.55;;
67191;SDS011;54120;53.504;49.426;2023-11-21T07:37:11;23.23;;;16.17;;
67191;SDS011;54120;53.504;49.426;2023-11-21T07:39:37;27.77;;;16.52;;
67191;SDS011;54120;53.504;49.426;2023-11-21T07:42:07;39.67;;;18.63;;
67191;SDS011;54120;53.504;49.426;2023-11-21T07:44:33;36.95;;;19.38;;
67191;SDS011;54120;53.504;49.426;2023-11-21T07:46:59;34.78;;;18.45;;
67191;SDS011;54120;53.504;49.426;2023-11-21T07:49:26;28.48;;;14.52;;
67191;SDS011;54120;53.504;49.426;2023-11-21T07:51:52;26.83;;;14.38;;
67191;SDS011;54120;53.504;49.426;2023-11-21T07:54:18;26.30;;;13.85;;
67191;SDS011;54120;53.504;49.426;2023-11-21T07:56:45;29.58;;;14.73;;
67191;SDS011;54120;53.504;49.426;2023-11-21T07:59:11;28.20;;;16.13;;
67191;SDS011;54120;53.504;49.426;2023-11-21T08:01:38;23.80;;;14.43;;
67191;SDS011;54120;53.504;49.426;2023-11-21T08:04:06;27.15;;;15.23;;
67191;SDS011;54120;53.504;49.426;2023-11-21T08:06:32;20.33;;;13.80;;
67191;SDS011;54120;53.504;49.426;2023-11-21T08:08:58;18.00;;;12.25;;
67191;SDS011;54120;53.504;49.426;2023-11-21T08:11:24;20.38;;;13.23;;
67191;SDS011;54120;53.504;49.426;2023-11-21T08:13:51;17.88;;;13.05;;
67191;SDS011;54120;53.504;49.426;2023-11-21T08:16:18;19.98;;;13.93;;
67191;SDS011;54120;53.504;49.426;2023-11-21T08:18:45;18.05;;;14.10;;
67191;SDS011;54120;53.504;49.426;2023-11-21T08:21:14;16.40;;;13.45;;
67191;SDS011;54120;53.504;49.426;2023-11-21T08:23:41;15.07;;;11.93;;
67191;SDS011;54120;53.504;49.426;2023-11-21T08:26:07;18.85;;;13.68;;
67191;SDS011;54120;53.504;49.426;2023-11-21T08:28:34;16.52;;;12.93;;
67191;SDS011;54120;53.504;49.426;2023-11-21T08:31:00;19.73;;;14.18;;
67191;SDS011;54120;53.504;49.426;2023-11-21T08:33:26;18.38;;;14.73;;
67191;SDS011;54120;53.504;49.426;2023-11-21T08:35:53;20.40;;;14.27;;
67191;SDS011;54120;53.504;49.426;2023-11-21T08:38:19;22.48;;;16.75;;
67191;SDS011;54120;53.504;49.426;2023-11-21T08:40:45;24.33;;;15.63;;
67191;SDS011;54120;53.504;49.426;2023-11-21T08:43:11;23.73;;;15.73;;
67191;SDS011;54120;53.504;49.426;2023-11-21T08:45:37;24.95;;;15.23;;
67191;SDS011;54120;53.504;49.426;2023-11-21T08:48:04;21.60;;;15.40;;
67191;SDS011;54120;53.504;49.426;2023-11-21T08:50:31;22.80;;;16.25;;
67191;SDS011;54120;53.504;49.426;2023-11-21T08:52:57;25.80;;;17.20;;
67191;SDS011;54120;53.504;49.426;2023-11-21T08:55:23;20.35;;;14.10;;
67191;SDS011;54120;53.504;49.426;2023-11-21T08:57:49;17.55;;;13.48;;
67191;SDS011;54120;53.504;49.426;2023-11-21T09:00:16;17.83;;;12.77;;
67191;SDS011;54120;53.504;49.426;2023-11-21T09:02:43;17.60;;;13.38;;
67191;SDS011;54120;53.504;49.426;2023-11-21T09:05:10;23.10;;;14.40;;
67191;SDS011;54120;53.504;49.426;2023-11-21T09:07:36;26.55;;;13.55;;
67191;SDS011;54120;53.504;49.426;2023-11-21T09:10:04;25.08;;;16.00;;
67191;SDS011;54120;53.504;49.426;2023-11-21T09:12:33;27.42;;;15.98;;
67191;SDS011;54120;53.504;49.426;2023-11-21T09:15:06;23.98;;;15.45;;
67191;SDS011;54120;53.504;49.426;2023-11-21T09:17:35;21.48;;;14.88;;
67191;SDS011;54120;53.504;49.426;2023-11-21T09:20:01;19.08;;;13.98;;
67191;SDS011;54120;53.504;49.426;2023-11-21T09:22:31;21.92;;;14.48;;
67191;SDS011;54120;53.504;49.426;2023-11-21T09:24:57;22.00;;;13.68;;
67191;SDS011;54120;53.504;49.426;2023-11-21T09:27:24;18.83;;;14.73;;
67191;SDS011;54120;53.504;49.426;2023-11-21T09:29:51;20.83;;;14.00;;
67191;SDS011;54120;53.504;49.426;2023-11-21T09:32:18;20.45;;;14.60;;
67191;SDS011;54120;53.504;49.426;2023-11-21T09:34:47;15.98;;;12.88;;
67191;SDS011;54120;53.504;49.426;2023-11-21T09:37:14;16.50;;;12.00;;
67191;SDS011;54120;53.504;49.426;2023-11-21T09:39:41;14.98;;;11.65;;
67191;SDS011;54120;53.504;49.426;2023-11-21T09:42:09;16.35;;;12.25;;
67191;SDS011;54120;53.504;49.426;2023-11-21T09:47:27;17.13;;;10.43;;
67191;SDS011;54120;53.504;49.426;2023-11-21T09:49:54;32.15;;;15.35;;
67191;SDS011;54120;53.504;49.426;2023-11-21T09:52:22;32.38;;;10.73;;
67191;SDS011;54120;53.504;49.426;2023-11-21T09:54:51;27.17;;;10.48;;
67191;SDS011;54120;53.504;49.426;2023-11-21T09:57:24;16.02;;;10.07;;
67191;SDS011;54120;53.504;49.426;2023-11-21T09:59:51;18.65;;;10.02;;
67191;SDS011;54120;53.504;49.426;2023-11-21T10:02:22;14.50;;;8.85;;
67191;SDS011;54120;53.504;49.426;2023-11-21T10:04:52;16.10;;;9.50;;
67191;SDS011;54120;53.504;49.426;2023-11-21T10:07:19;16.67;;;9.65;;
67191;SDS011;54120;53.504;49.426;2023-11-21T10:09:46;12.13;;;9.07;;
67191;SDS011;54120;53.504;49.426;2023-11-21T10:12:16;12.95;;;9.25;;
67191;SDS011;54120;53.504;49.426;2023-11-21T10:14:43;13.63;;;9.43;;
67191;SDS011;54120;53.504;49.426;2023-11-21T10:17:14;14.25;;;9.00;;
67191;SDS011;54120;53.504;49.426;2023-11-21T10:19:45;12.85;;;8.90;;
67191;SDS011;54120;53.504;49.426;2023-11-21T10:22:14;11.88;;;9.43;;
67191;SDS011;54120;53.504;49.426;2023-11-21T10:24:41;13.13;;;8.93;;
67191;SDS011;54120;53.504;49.426;2023-11-21T10:27:09;20.75;;;10.57;;
67191;SDS011;54120;53.504;49.426;2023-11-21T10:29:36;31.88;;;13.85;;
67191;SDS011;54120;53.504;49.426;2023-11-21T10:32:02;34.88;;;15.98;;
67191;SDS011;54120;53.504;49.426;2023-11-21T10:34:29;25.15;;;14.88;;
67191;SDS011;54120;53.504;49.426;2023-11-21T10:36:55;79.13;;;52.30;;
67191;SDS011;54120;53.504;49.426;2023-11-21T10:39:23;26.25;;;15.95;;
67191;SDS011;54120;53.504;49.426;2023-11-21T10:41:56;26.65;;;14.75;;
67191;SDS011;54120;53.504;49.426;2023-11-21T10:44:22;24.85;;;16.30;;
67191;SDS011;54120;53.504;49.426;2023-11-21T10:46:52;28.45;;;16.05;;
67191;SDS011;54120;53.504;49.426;2023-11-21T10:49:25;26.90;;;15.63;;
67191;SDS011;54120;53.504;49.426;2023-11-21T10:51:53;35.95;;;20.13;;
67191;SDS011;54120;53.504;49.426;2023-11-21T10:54:20;22.75;;;13.30;;
67191;SDS011;54120;53.504;49.426;2023-11-21T10:56:48;20.13;;;12.82;;
67191;SDS011;54120;53.504;49.426;2023-11-21T10:59:18;21.60;;;14.13;;
67191;SDS011;54120;53.504;49.426;2023-11-21T11:01:46;19.70;;;13.30;;
67191;SDS011;54120;53.504;49.426;2023-11-21T11:04:15;21.40;;;13.07;;
67191;SDS011;54120;53.504;49.426;2023-11-21T11:06:44;17.40;;;11.75;;
67191;SDS011;54120;53.504;49.426;2023-11-21T11:09:16;21.20;;;12.38;;
67191;SDS011;54120;53.504;49.426;2023-11-21T11:11:43;20.17;;;12.32;;
67191;SDS011;54120;53.504;49.426;2023-11-21T11:14:10;17.90;;;11.90;;
67191;SDS011;54120;53.504;49.426;2023-11-21T11:16:41;18.08;;;11.45;;
67191;SDS011;54120;53.504;49.426;2023-11-21T11:19:09;21.20;;;12.32;;
67191;SDS011;54120;53.504;49.426;2023-11-21T11:27:06;22.42;;;14.70;;
67191;SDS011;54120;53.504;49.426;2023-11-21T11:35:34;43.35;;;20.33;;
67191;SDS011;54120;53.504;49.426;2023-11-21T11:38:08;47.67;;;21.90;;
67191;SDS011;54120;53.504;49.426;2023-11-21T11:40:41;63.80;;;24.65;;
67191;SDS011;54120;53.504;49.426;2023-11-21T11:43:10;52.88;;;23.60;;
67191;SDS011;54120;53.504;49.426;2023-11-21T11:45:37;57.28;;;23.20;;
67191;SDS011;54120;53.504;49.426;2023-11-21T11:48:07;45.53;;;20.75;;
67191;SDS011;54120;53.504;49.426;2023-11-21T11:50:34;44.03;;;20.00;;
67191;SDS011;54120;53.504;49.426;2023-11-21T11:53:11;50.10;;;21.88;;
67191;SDS011;54120;53.504;49.426;2023-11-21T11:55:39;32.45;;;18.08;;
67191;SDS011;54120;53.504;49.426;2023-11-21T11:58:06;39.60;;;19.52;;
67191;SDS011;54120;53.504;49.426;2023-11-21T12:00:34;36.08;;;17.85;;
67191;SDS011;54120;53.504;49.426;2023-11-21T12:03:06;36.15;;;18.45;;
67191;SDS011;54120;53.504;49.426;2023-11-21T12:05:35;33.13;;;18.05;;
67191;SDS011;54120;53.504;49.426;2023-11-21T12:08:05;32.42;;;17.23;;
67191;SDS011;54120;53.504;49.426;2023-11-21T12:10:33;30.63;;;16.63;;
67191;SDS011;54120;53.504;49.426;2023-11-21T12:13:02;23.65;;;14.85;;
67191;SDS011;54120;53.504;49.426;2023-11-21T12:15:35;24.80;;;15.77;;
67191;SDS011;54120;53.504;49.426;2023-11-21T12:18:02;20.58;;;14.05;;
67191;SDS011;54120;53.504;49.426;2023-11-21T12:20:29;22.52;;;13.18;;
67191;SDS011;54120;53.504;49.426;2023-11-21T12:22:57;20.80;;;13.63;;
67191;SDS011;54120;53.504;49.426;2023-11-21T12:25:27;20.95;;;12.95;;
67191;SDS011;54120;53.504;49.426;2023-11-21T12:27:55;17.50;;;12.05;;
67191;SDS011;54120;53.504;49.426;2023-11-21T12:30:23;20.20;;;13.27;;
67191;SDS011;54120;53.504;49.426;2023-11-21T12:32:54;21.98;;;13.57;;
67191;SDS011;54120;53.504;49.426;2023-11-21T12:35:22;19.88;;;13.15;;
67191;SDS011;54120;53.504;49.426;2023-11-21T12:37:51;21.90;;;13.35;;
67191;SDS011;54120;53.504;49.426;2023-11-21T12:40:18;25.20;;;13.45;;
67191;SDS011;54120;53.504;49.426;2023-11-21T12:42:45;23.77;;;14.23;;
67191;SDS011;54120;53.504;49.426;2023-11-21T12:45:21;27.25;;;15.00;;
67191;SDS011;54120;53.504;49.426;2023-11-21T12:47:52;25.52;;;14.90;;
67191;SDS011;54120;53.504;49.426;2023-11-21T12:50:22;26.45;;;17.40;;
67191;SDS011;54120;53.504;49.426;2023-11-21T12:52:52;31.20;;;17.35;;
67191;SDS011;54120;53.504;49.426;2023-11-21T12:55:19;36.42;;;18.58;;
67191;SDS011;54120;53.504;49.426;2023-11-21T12:57:47;35.55;;;17.58;;
67191;SDS011;54120;53.504;49.426;2023-11-21T13:00:20;36.97;;;18.75;;
67191;SDS011;54120;53.504;49.426;2023-11-21T13:03:08;32.75;;;17.80;;
67191;SDS011;54120;53.504;49.426;2023-11-21T13:05:38;38.10;;;18.33;;
67191;SDS011;54120;53.504;49.426;2023-11-21T13:08:06;35.45;;;20.02;;
67191;SDS011;54120;53.504;49.426;2023-11-21T13:10:34;37.10;;;21.17;;
67191;SDS011;54120;53.504;49.426;2023-11-21T13:13:02;38.25;;;20.50;;
67191;SDS011;54120;53.504;49.426;2023-11-21T13:15:39;39.97;;;20.80;;
67191;SDS011;54120;53.504;49.426;2023-11-21T13:18:09;37.47;;;20.95;;
67191;SDS011;54120;53.504;49.426;2023-11-21T13:20:36;38.80;;;20.88;;
67191;SDS011;54120;53.504;49.426;2023-11-21T13:23:07;40.20;;;20.38;;
67191;SDS011;54120;53.504;49.426;2023-11-21T13:25:34;34.50;;;18.95;;
67191;SDS011;54120;53.504;49.426;2023-11-21T13:28:00;33.78;;;19.52;;
67191;SDS011;54120;53.504;49.426;2023-11-21T13:30:28;36.58;;;17.75;;
67191;SDS011;54120;53.504;49.426;2023-11-21T13:33:01;39.88;;;20.75;;
67191;SDS011;54120;53.504;49.426;2023-11-21T13:35:37;39.45;;;20.85;;
67191;SDS011;54120;53.504;49.426;2023-11-21T13:38:08;40.33;;;20.67;;
67191;SDS011;54120;53.504;49.426;2023-11-21T13:40:40;36.58;;;19.67;;
67191;SDS011;54120;53.504;49.426;2023-11-21T13:43:12;39.90;;;18.50;;
67191;SDS011;54120;53.504;49.426;2023-11-21T13:45:39;40.55;;;17.73;;
67191;SDS011;54120;53.504;49.426;2023-11-21T13:48:06;31.10;;;19.55;;
67191;SDS011;54120;53.504;49.426;2023-11-21T13:50:37;36.45;;;17.98;;
67191;SDS011;54120;53.504;49.426;2023-11-21T13:53:04;31.58;;;18.73;;
67191;SDS011;54120;53.504;49.426;2023-11-21T13:55:44;38.58;;;20.75;;
67191;SDS011;54120;53.504;49.426;2023-11-21T13:58:14;31.23;;;17.77;;
67191;SDS011;54120;53.504;49.426;2023-11-21T14:00:45;35.50;;;18.98;;
67191;SDS011;54120;53.504;49.426;2023-11-21T14:03:12;37.30;;;21.80;;
67191;SDS011;54120;53.504;49.426;2023-11-21T14:05:44;36.97;;;18.33;;
67191;SDS011;54120;53.504;49.426;2023-11-21T14:08:13;39.00;;;23.13;;
67191;SDS011;54120;53.504;49.426;2023-11-21T14:10:42;42.53;;;22.88;;
67191;SDS011;54120;53.504;49.426;2023-11-21T14:13:09;39.08;;;22.23;;
67191;SDS011;54120;53.504;49.426;2023-11-21T14:15:38;39.33;;;20.90;;
67191;SDS011;54120;53.504;49.426;2023-11-21T14:18:08;41.92;;;23.65;;
67191;SDS011;54120;53.504;49.426;2023-11-21T14:20:40;35.35;;;20.05;;
67191;SDS011;54120;53.504;49.426;2023-11-21T14:23:07;42.08;;;22.02;;
67191;SDS011;54120;53.504;49.426;2023-11-21T14:25:34;41.78;;;22.90;;
67191;SDS011;54120;53.504;49.426;2023-11-21T14:28:03;41.85;;;24.20;;
67191;SDS011;54120;53.504;49.426;2023-11-21T14:30:30;38.03;;;22.73;;
67191;SDS011;54120;53.504;49.426;2023-11-21T14:33:00;38.20;;;21.23;;
67191;SDS011;54120;53.504;49.426;2023-11-21T14:35:27;41.17;;;22.55;;